createdAt,value
2018-04-14T00:01:14.378Z,75093.41
2018-04-14T00:03:44.009Z,75092.41
2018-04-14T00:06:13.414Z,75090.38
2018-04-14T00:08:43.259Z,75105.56
2018-04-14T00:11:13.017Z,75107.58
2018-04-14T00:13:42.675Z,75111.63
2018-04-14T00:16:12.627Z,75085.31
2018-04-14T00:18:42.290Z,75087.34
2018-04-14T00:21:12.044Z,75092.41
2018-04-14T00:23:42.123Z,75078.23
2018-04-14T00:26:11.606Z,75087.34
2018-04-14T00:28:41.343Z,75097.47
2018-04-14T00:31:11.203Z,75104.55
2018-04-14T00:33:40.821Z,75114.67
2018-04-14T00:36:10.442Z,75100.50
2018-04-14T00:38:40.203Z,75103.53
2018-04-14T00:41:10.059Z,75091.39
2018-04-14T00:43:39.642Z,75088.36
2018-04-14T00:46:09.307Z,75097.47
2018-04-14T00:48:39.185Z,75113.66
2018-04-14T00:51:08.774Z,75115.68
2018-04-14T00:53:48.878Z,75109.61
2018-04-14T00:56:19.110Z,75113.66
2018-04-14T00:58:49.495Z,75108.59
2018-04-14T01:01:19.122Z,75105.56
2018-04-14T01:03:49.179Z,75118.72
2018-04-14T01:06:18.854Z,75118.72
2018-04-14T01:08:48.695Z,75120.73
2018-04-14T01:11:18.779Z,75124.78
2018-04-14T01:13:48.440Z,75131.88
2018-04-14T01:16:18.146Z,75131.88
2018-04-14T01:18:47.823Z,75148.06
2018-04-14T01:21:17.768Z,75136.94
2018-04-14T01:23:47.420Z,75135.92
2018-04-14T01:26:17.191Z,75130.86
2018-04-14T01:28:46.910Z,75146.05
2018-04-14T01:31:16.511Z,75148.06
2018-04-14T01:33:46.119Z,75133.89
2018-04-14T01:36:15.972Z,75145.03
2018-04-14T01:38:45.647Z,75161.22
2018-04-14T01:41:15.508Z,75156.16
2018-04-14T01:43:45.135Z,75145.03
2018-04-14T01:46:14.974Z,75153.13
2018-04-14T01:48:44.587Z,75152.11
2018-04-14T01:51:14.490Z,75152.11
2018-04-14T01:53:44.480Z,75158.19
2018-04-14T01:56:14.586Z,75147.05
2018-04-14T01:58:44.161Z,75139.97
2018-04-14T02:01:13.728Z,75153.13
2018-04-14T02:03:43.498Z,75147.05
2018-04-14T02:06:13.343Z,75131.88
2018-04-14T02:08:43.056Z,75149.08
2018-04-14T02:11:12.770Z,75148.06
2018-04-14T02:13:42.805Z,75164.27
2018-04-14T02:16:12.684Z,75138.95
2018-04-14T02:18:42.275Z,75143.00
2018-04-14T02:21:12.137Z,75139.97
2018-04-14T02:23:41.855Z,75160.21
2018-04-14T02:26:11.738Z,75161.22
2018-04-14T02:28:41.534Z,75149.08
2018-04-14T02:31:11.262Z,75130.86
2018-04-14T02:33:40.906Z,75140.98
2018-04-14T02:36:10.838Z,75126.81
2018-04-14T02:38:40.372Z,75139.97
2018-04-14T02:41:09.792Z,75128.84
2018-04-14T02:43:39.562Z,75119.73
2018-04-14T02:46:09.699Z,75110.62
2018-04-14T02:48:39.238Z,75126.81
2018-04-14T02:51:08.856Z,75107.58
2018-04-14T02:53:38.264Z,75146.05
2018-04-14T02:56:08.067Z,75124.78
2018-04-14T02:58:37.816Z,75125.80
2018-04-14T03:01:07.387Z,75122.77
2018-04-14T03:03:36.817Z,75125.80
2018-04-14T03:06:06.935Z,75138.95
2018-04-14T03:08:36.523Z,75126.81
2018-04-14T03:11:06.135Z,75129.84
2018-04-14T03:13:35.667Z,75127.83
2018-04-14T03:16:05.346Z,75119.73
2018-04-14T03:18:35.000Z,75128.84
2018-04-14T03:21:04.518Z,75130.86
2018-04-14T03:23:34.275Z,75140.98
2018-04-14T03:26:03.767Z,75154.14
2018-04-14T03:28:33.460Z,75192.59
2018-04-14T03:31:03.468Z,75162.23
2018-04-14T03:33:33.311Z,75145.03
2018-04-14T03:36:02.952Z,75135.92
2018-04-14T03:38:36.995Z,75159.20
2018-04-14T03:41:06.562Z,75160.21
2018-04-14T03:43:36.119Z,75188.55
2018-04-14T03:46:07.782Z,75233.08
2018-04-14T03:48:38.081Z,75228.02
2018-04-14T03:51:07.499Z,75238.14
2018-04-14T03:53:37.227Z,75262.44
2018-04-14T03:56:07.125Z,75259.40
2018-04-14T03:58:36.626Z,75264.45
2018-04-14T04:01:06.131Z,75224.98
2018-04-14T04:03:35.844Z,75188.55
2018-04-14T04:06:05.771Z,75189.56
2018-04-14T04:08:35.452Z,75178.43
2018-04-14T04:11:05.490Z,75173.37
2018-04-14T04:13:35.198Z,75173.37
2018-04-14T04:16:04.799Z,75175.39
2018-04-14T04:18:43.139Z,75203.73
2018-04-14T04:23:28.173Z,75162.23
2018-04-14T04:25:58.086Z,75228.02
2018-04-14T04:28:27.498Z,75216.89
2018-04-14T04:30:57.464Z,75214.86
2018-04-14T04:33:27.762Z,75229.03
2018-04-14T04:35:57.342Z,75246.23
2018-04-14T04:38:26.767Z,75253.33
2018-04-14T04:40:56.569Z,75244.22
2018-04-14T04:43:26.299Z,75264.45
2018-04-14T04:46:00.376Z,75251.30
2018-04-14T04:48:30.488Z,75258.38
2018-04-14T04:51:00.469Z,75264.45
2018-04-14T04:53:29.863Z,75254.34
2018-04-14T04:55:59.483Z,75254.34
2018-04-14T04:58:29.094Z,75260.41
2018-04-14T05:00:58.787Z,75261.42
2018-04-14T05:03:28.179Z,75266.48
2018-04-14T05:05:57.579Z,75289.77
2018-04-14T05:08:27.564Z,75292.80
2018-04-14T05:11:09.687Z,75298.88
2018-04-14T05:13:39.168Z,75290.77
2018-04-14T05:16:08.911Z,75300.89
2018-04-14T05:18:38.584Z,75292.80
2018-04-14T05:21:08.400Z,75300.89
2018-04-14T05:23:38.359Z,75303.93
2018-04-14T05:26:07.930Z,75298.88
2018-04-14T05:28:37.666Z,75302.92
2018-04-14T05:31:07.309Z,75306.97
2018-04-14T05:33:37.748Z,75312.03
2018-04-14T05:36:07.715Z,75300.89
2018-04-14T05:38:37.683Z,75294.82
2018-04-14T05:41:07.658Z,75267.49
2018-04-14T05:43:37.120Z,75277.61
2018-04-14T05:46:07.004Z,75270.53
2018-04-14T05:48:36.973Z,75292.80
2018-04-14T05:51:06.734Z,75272.55
2018-04-14T05:53:36.163Z,75282.67
2018-04-14T05:56:06.285Z,75244.22
2018-04-14T05:58:36.382Z,75253.33
2018-04-14T06:01:06.905Z,75240.17
2018-04-14T06:03:36.886Z,75234.09
2018-04-14T06:06:06.496Z,75246.23
2018-04-14T06:08:37.020Z,75241.18
2018-04-14T06:11:06.800Z,75242.19
2018-04-14T06:13:36.773Z,75227.01
2018-04-14T06:16:07.449Z,75227.01
2018-04-14T06:18:41.228Z,75248.27
2018-04-14T06:21:11.893Z,75228.02
2018-04-14T06:23:41.414Z,75244.22
2018-04-14T06:26:11.038Z,75232.07
2018-04-14T06:28:40.812Z,75209.80
2018-04-14T06:31:10.234Z,75213.85
2018-04-14T06:33:39.699Z,75188.55
2018-04-14T06:36:09.567Z,75181.47
2018-04-14T06:38:38.956Z,75180.45
2018-04-14T06:41:08.354Z,75186.53
2018-04-14T06:43:38.047Z,75188.55
2018-04-14T06:46:07.490Z,75168.31
2018-04-14T06:48:36.892Z,75170.33
2018-04-14T06:51:06.598Z,75185.52
2018-04-14T06:53:36.162Z,75185.52
2018-04-14T06:56:05.693Z,75170.33
2018-04-14T06:58:35.559Z,75166.28
2018-04-14T07:01:05.433Z,75155.16
2018-04-14T07:03:34.852Z,75144.02
2018-04-14T07:06:04.910Z,75121.75
2018-04-14T07:08:34.451Z,75116.69
2018-04-14T07:11:03.937Z,75109.61
2018-04-14T07:13:33.738Z,75114.67
2018-04-14T07:16:03.179Z,75114.67
2018-04-14T07:18:32.635Z,75110.62
2018-04-14T07:21:02.356Z,75084.30
2018-04-14T07:23:32.031Z,75111.63
2018-04-14T07:26:01.450Z,75088.36
2018-04-14T07:28:31.909Z,75049.89
2018-04-14T07:31:01.511Z,74993.22
2018-04-14T07:33:30.923Z,74963.88
2018-04-14T07:36:00.681Z,74933.52
2018-04-14T07:38:30.103Z,74919.34
2018-04-14T07:40:59.561Z,74965.89
2018-04-14T07:43:29.222Z,74942.63
2018-04-14T07:45:58.800Z,74953.75
2018-04-14T07:48:28.718Z,74960.84
2018-04-14T07:50:58.481Z,74944.64
2018-04-14T07:53:27.895Z,74925.41
2018-04-14T07:55:57.324Z,74906.19
2018-04-14T07:58:27.291Z,74875.83
2018-04-14T08:00:56.791Z,74884.94
2018-04-14T08:03:26.252Z,74883.92
2018-04-14T08:05:55.979Z,74843.44
2018-04-14T08:08:25.405Z,74860.64
2018-04-14T08:10:54.832Z,74789.80
2018-04-14T08:13:24.767Z,74768.55
2018-04-14T08:15:54.176Z,74724.03
2018-04-14T08:18:24.462Z,74692.66
2018-04-14T08:20:54.638Z,74720.99
2018-04-14T08:23:24.392Z,74757.42
2018-04-14T08:25:54.091Z,74700.75
2018-04-14T08:28:23.831Z,74684.56
2018-04-14T08:30:53.310Z,74656.23
2018-04-14T08:33:22.698Z,74622.84
2018-04-14T08:35:52.366Z,74655.22
2018-04-14T08:38:21.831Z,74679.50
2018-04-14T08:40:51.375Z,74646.11
2018-04-14T08:43:21.095Z,74606.64
2018-04-14T08:45:50.759Z,74647.13
2018-04-14T08:48:21.793Z,74694.68
2018-04-14T08:50:51.849Z,74656.23
2018-04-14T08:53:21.278Z,74693.67
2018-04-14T08:55:50.710Z,74605.63
2018-04-14T08:58:20.545Z,74563.13
2018-04-14T09:00:50.254Z,74506.47
2018-04-14T09:03:19.694Z,74485.21
2018-04-14T09:05:49.703Z,74567.18
2018-04-14T09:08:19.084Z,74569.20
2018-04-14T09:10:48.752Z,74657.23
2018-04-14T09:13:18.636Z,74560.09
2018-04-14T09:15:49.825Z,74612.72
2018-04-14T09:18:19.422Z,74591.46
2018-04-14T09:20:49.123Z,74537.83
2018-04-14T09:23:18.657Z,74548.97
2018-04-14T09:25:48.240Z,74541.88
2018-04-14T09:28:17.995Z,74546.94
2018-04-14T09:30:47.425Z,74510.52
2018-04-14T09:33:16.942Z,74530.75
2018-04-14T09:35:47.071Z,74481.16
2018-04-14T09:38:16.637Z,74476.11
2018-04-14T09:40:46.230Z,74484.20
2018-04-14T09:43:15.994Z,74508.48
2018-04-14T09:45:45.440Z,74464.97
2018-04-14T09:48:16.184Z,74541.88
2018-04-14T09:50:45.903Z,74433.61
2018-04-14T09:53:15.410Z,74394.14
2018-04-14T09:55:44.810Z,74407.30
2018-04-14T09:58:14.592Z,74437.66
2018-04-14T10:00:48.066Z,74436.64
2018-04-14T10:03:21.531Z,74368.84
2018-04-14T10:05:51.329Z,74392.13
2018-04-14T10:08:20.815Z,74406.28
2018-04-14T10:10:50.246Z,74422.48
2018-04-14T10:13:19.951Z,74321.29
2018-04-14T10:15:49.405Z,74328.38
2018-04-14T10:18:18.829Z,74360.75
2018-04-14T10:20:48.546Z,74396.17
2018-04-14T10:23:17.982Z,74455.87
2018-04-14T10:25:47.386Z,74454.86
2018-04-14T10:28:17.082Z,74458.91
2018-04-14T10:30:46.599Z,74470.03
2018-04-14T10:33:16.247Z,74467.00
2018-04-14T10:35:45.835Z,74417.42
2018-04-14T10:38:15.538Z,74384.03
2018-04-14T10:40:44.974Z,74379.98
2018-04-14T10:43:14.686Z,74364.80
2018-04-14T10:45:45.152Z,74362.78
2018-04-14T10:48:14.680Z,74377.95
2018-04-14T10:50:44.318Z,74336.47
2018-04-14T10:53:14.543Z,74330.39
2018-04-14T10:55:43.960Z,74318.25
2018-04-14T10:58:13.703Z,74359.73
2018-04-14T11:00:43.383Z,74326.35
2018-04-14T11:03:13.478Z,74336.47
2018-04-14T11:05:42.939Z,74307.13
2018-04-14T11:08:12.642Z,74429.56
2018-04-14T11:10:42.047Z,74468.02
2018-04-14T11:13:11.462Z,74506.47
2018-04-14T11:15:41.170Z,74528.73
2018-04-14T11:18:10.996Z,74542.89
2018-04-14T11:20:40.463Z,74556.05
2018-04-14T11:23:10.553Z,74478.13
2018-04-14T11:25:40.018Z,74474.08
2018-04-14T11:28:09.443Z,74452.83
2018-04-14T11:30:39.251Z,74388.07
2018-04-14T11:33:08.659Z,74384.03
2018-04-14T11:35:38.069Z,74410.34
2018-04-14T11:38:07.927Z,74394.14
2018-04-14T11:40:37.399Z,74345.58
2018-04-14T11:43:06.910Z,74373.91
2018-04-14T11:45:36.631Z,74300.05
2018-04-14T11:48:06.105Z,74293.97
2018-04-14T11:50:35.724Z,74303.08
2018-04-14T11:53:05.463Z,74322.30
2018-04-14T11:55:35.032Z,74348.61
2018-04-14T11:58:04.451Z,74326.35
2018-04-14T12:00:34.190Z,74317.24
2018-04-14T12:03:03.678Z,74331.41
2018-04-14T12:05:33.118Z,74383.02
2018-04-14T12:08:02.877Z,74375.93
2018-04-14T12:10:32.311Z,74454.86
2018-04-14T12:13:01.801Z,74451.82
2018-04-14T12:15:31.487Z,74450.81
2018-04-14T12:18:00.933Z,74380.99
2018-04-14T12:20:30.391Z,74324.33
2018-04-14T12:23:00.163Z,74296.00
2018-04-14T12:25:29.596Z,74350.63
2018-04-14T12:27:59.058Z,74328.38
2018-04-14T12:30:28.763Z,74342.54
2018-04-14T12:32:58.184Z,74350.63
2018-04-14T12:35:27.608Z,74313.20
2018-04-14T12:37:59.868Z,74292.95
2018-04-14T12:40:30.129Z,74263.61
2018-04-14T12:42:59.606Z,74271.71
2018-04-14T12:45:29.487Z,74262.60
2018-04-14T12:47:59.491Z,74240.34
2018-04-14T12:50:29.060Z,74294.98
2018-04-14T12:52:59.067Z,74366.83
2018-04-14T12:55:28.717Z,74329.38
2018-04-14T12:57:58.449Z,74275.76
2018-04-14T13:00:28.165Z,74217.08
2018-04-14T13:02:57.984Z,74291.95
2018-04-14T13:05:27.781Z,74265.64
2018-04-14T13:07:57.523Z,74223.14
2018-04-14T13:10:26.990Z,74262.60
2018-04-14T13:12:56.387Z,74308.14
2018-04-14T13:15:26.063Z,74321.29
2018-04-14T13:17:55.459Z,74286.89
2018-04-14T13:20:24.899Z,74314.20
2018-04-14T13:22:54.606Z,74225.16
2018-04-14T13:25:23.997Z,74219.09
2018-04-14T13:27:53.388Z,74259.57
2018-04-14T13:30:23.424Z,74290.94
2018-04-14T13:32:52.839Z,74286.89
2018-04-14T13:35:22.363Z,74269.69
2018-04-14T13:37:52.398Z,74304.09
2018-04-14T13:40:21.799Z,74349.63
2018-04-14T13:42:51.221Z,74297.01
2018-04-14T13:45:20.903Z,74310.16
2018-04-14T13:47:50.318Z,74299.03
2018-04-14T13:50:20.076Z,74328.38
2018-04-14T13:52:49.953Z,74334.45
2018-04-14T13:55:19.351Z,74321.29
2018-04-14T13:57:48.775Z,74303.08
2018-04-14T14:00:19.827Z,74305.10
2018-04-14T14:02:49.256Z,74329.38
2018-04-14T14:05:18.651Z,74344.56
2018-04-14T14:07:48.402Z,74334.45
2018-04-14T14:10:17.875Z,74360.75
2018-04-14T14:12:47.306Z,74331.41
2018-04-14T14:15:17.032Z,74305.10
2018-04-14T14:17:46.487Z,74309.15
2018-04-14T14:20:16.451Z,74337.48
2018-04-14T14:22:47.673Z,74359.73
2018-04-14T14:25:17.148Z,74404.27
2018-04-14T14:27:46.570Z,74398.19
2018-04-14T14:30:16.353Z,74362.78
2018-04-14T14:32:45.771Z,74350.63
2018-04-14T14:35:15.210Z,74342.54
2018-04-14T14:37:46.047Z,74323.31
2018-04-14T14:40:15.940Z,74319.27
2018-04-14T14:42:45.608Z,74283.86
2018-04-14T14:45:17.558Z,74323.31
2018-04-14T14:47:48.381Z,74339.50
2018-04-14T14:50:23.186Z,74405.27
2018-04-14T14:52:54.269Z,74376.94
2018-04-14T14:55:24.343Z,74388.07
2018-04-14T14:57:55.935Z,74380.99
2018-04-14T15:00:26.127Z,74361.77
2018-04-14T15:02:57.260Z,74350.63
2018-04-14T15:05:26.727Z,74341.53
2018-04-14T15:07:56.131Z,74331.41
2018-04-14T15:10:28.897Z,74346.59
2018-04-14T15:13:03.649Z,74321.29
2018-04-14T15:15:34.223Z,74340.52
2018-04-14T15:18:03.665Z,74391.11
2018-04-14T15:20:33.096Z,74416.41
2018-04-14T15:23:02.888Z,74424.50
2018-04-14T15:25:32.347Z,74447.77
2018-04-14T15:28:01.792Z,74419.44
2018-04-14T15:30:31.699Z,74449.80
2018-04-14T15:33:01.242Z,74384.03
2018-04-14T15:35:30.715Z,74335.45
2018-04-14T15:38:00.398Z,74300.05
2018-04-14T15:40:29.829Z,74325.34
2018-04-14T15:43:00.790Z,74345.58
2018-04-14T15:45:30.590Z,74345.58
2018-04-14T15:48:00.015Z,74337.48
2018-04-14T15:50:29.508Z,74327.36
2018-04-14T15:52:59.208Z,74336.47
2018-04-14T15:55:28.626Z,74331.41
2018-04-14T15:57:58.050Z,74310.16
2018-04-14T16:00:27.754Z,74309.15
2018-04-14T16:03:01.517Z,74305.10
2018-04-14T16:05:30.963Z,74336.47
2018-04-14T16:08:00.682Z,74335.45
2018-04-14T16:10:30.263Z,74331.41
2018-04-14T16:12:59.697Z,74347.59
2018-04-14T16:15:29.374Z,74305.10
2018-04-14T16:17:58.822Z,74317.24
2018-04-14T16:20:28.262Z,74323.31
2018-04-14T16:22:58.134Z,74326.35
2018-04-14T16:25:27.766Z,74319.27
2018-04-14T16:27:57.374Z,74303.08
2018-04-14T16:30:27.054Z,74324.33
2018-04-14T16:32:56.451Z,74326.35
2018-04-14T16:35:25.827Z,74356.70
2018-04-14T16:37:55.743Z,74331.41
2018-04-14T16:40:25.151Z,74340.52
2018-04-14T16:42:54.588Z,74364.80
2018-04-14T16:45:24.247Z,74382.00
2018-04-14T16:47:53.863Z,74353.67
2018-04-14T16:50:23.966Z,74359.73
2018-04-14T16:52:53.694Z,74383.02
2018-04-14T16:55:23.104Z,74388.07
2018-04-14T16:57:52.659Z,74393.13
2018-04-14T17:00:22.447Z,74411.34
2018-04-14T17:02:51.827Z,74401.23
2018-04-14T17:05:21.241Z,74415.39
2018-04-14T17:07:51.576Z,74446.77
2018-04-14T17:10:21.004Z,74420.45
2018-04-14T17:12:50.418Z,74413.38
2018-04-14T17:15:20.118Z,74410.34
2018-04-14T17:17:49.575Z,74404.27
2018-04-14T17:20:19.409Z,74413.38
2018-04-14T17:22:49.394Z,74430.57
2018-04-14T17:25:19.002Z,74399.20
2018-04-14T17:27:48.602Z,74424.50
2018-04-14T17:30:18.402Z,74431.58
2018-04-14T17:32:48.041Z,74462.95
2018-04-14T17:35:17.534Z,74475.09
2018-04-14T17:37:47.376Z,74492.30
2018-04-14T17:40:16.823Z,74509.50
2018-04-14T17:42:46.378Z,74504.44
2018-04-14T17:45:16.171Z,74516.58
2018-04-14T17:47:45.654Z,74538.84
2018-04-14T17:50:15.136Z,74552.00
2018-04-14T17:52:45.045Z,74532.77
2018-04-14T17:55:15.010Z,74550.98
2018-04-14T17:57:44.700Z,74559.08
2018-04-14T18:00:14.524Z,74587.41
2018-04-14T18:02:44.070Z,74566.17
2018-04-14T18:05:13.622Z,74590.45
2018-04-14T18:07:43.375Z,74602.59
2018-04-14T18:10:12.894Z,74604.63
2018-04-14T18:12:42.395Z,74617.77
2018-04-14T18:15:12.234Z,74621.82
2018-04-14T18:17:41.744Z,74635.98
2018-04-14T18:20:11.221Z,74641.05
2018-04-14T18:22:41.209Z,74652.18
2018-04-14T18:25:10.699Z,74663.31
2018-04-14T18:27:40.175Z,74707.84
2018-04-14T18:30:10.039Z,74708.84
2018-04-14T18:32:39.524Z,74706.83
2018-04-14T18:35:08.992Z,74717.95
2018-04-14T18:37:38.815Z,74722.00
2018-04-14T18:40:08.467Z,74746.29
2018-04-14T18:42:37.999Z,74790.81
2018-04-14T18:45:07.875Z,74808.02
2018-04-14T18:47:37.347Z,74817.13
2018-04-14T18:50:07.014Z,74818.14
2018-04-14T18:55:10.366Z,74834.33
2018-04-14T18:57:39.962Z,74834.33
2018-04-14T19:00:09.734Z,74821.17
2018-04-14T19:02:39.755Z,74817.13
2018-04-14T19:05:09.317Z,74823.20
2018-04-14T19:07:39.522Z,74818.14
2018-04-14T19:10:09.166Z,74815.11
2018-04-14T19:12:38.691Z,74820.16
2018-04-14T19:15:08.691Z,74811.06
2018-04-14T19:17:38.153Z,74834.33
2018-04-14T19:20:09.544Z,74853.56
2018-04-14T19:22:39.407Z,74871.78
2018-04-14T19:25:09.306Z,74909.22
2018-04-14T19:27:39.231Z,74911.25
2018-04-14T19:30:09.091Z,74885.95
2018-04-14T19:32:38.579Z,74887.97
2018-04-14T19:35:08.455Z,74911.25
2018-04-14T19:37:38.417Z,74910.23
2018-04-14T19:40:08.085Z,74958.81
2018-04-14T19:42:37.608Z,74955.77
2018-04-14T19:45:08.306Z,74945.66
2018-04-14T19:47:37.792Z,74918.33
2018-04-14T19:50:07.530Z,74934.52
2018-04-14T19:52:37.363Z,74953.75
2018-04-14T19:55:07.016Z,74963.88
2018-04-14T19:57:36.586Z,75007.39
2018-04-14T20:00:06.554Z,74970.95
2018-04-14T20:02:36.034Z,74956.78
2018-04-14T20:05:09.586Z,74972.98
2018-04-14T20:07:39.339Z,74959.82
2018-04-14T20:10:08.861Z,74950.72
2018-04-14T20:12:38.347Z,74922.38
2018-04-14T20:15:08.192Z,74958.81
2018-04-14T20:17:37.682Z,74980.06
2018-04-14T20:20:07.844Z,74990.19
2018-04-14T20:22:37.841Z,74992.20
2018-04-14T20:25:07.346Z,74972.98
2018-04-14T20:27:37.023Z,74975.00
2018-04-14T20:30:07.276Z,74972.98
2018-04-14T20:32:36.786Z,74957.80
2018-04-14T20:35:06.702Z,74972.98
2018-04-14T20:37:36.419Z,74956.78
2018-04-14T20:40:05.986Z,74976.02
2018-04-14T20:42:35.520Z,74963.88
2018-04-14T20:45:05.471Z,74956.78
2018-04-14T20:47:34.921Z,74972.98
2018-04-14T20:50:04.451Z,74973.99
2018-04-14T20:52:34.163Z,74989.17
2018-04-14T20:55:03.606Z,75009.41
2018-04-14T20:57:33.042Z,75012.45
2018-04-14T21:00:02.735Z,75008.40
2018-04-14T21:02:32.423Z,75007.39
2018-04-14T21:05:01.835Z,74998.28
2018-04-14T21:07:31.823Z,75001.31
2018-04-14T21:10:01.230Z,74986.14
2018-04-14T21:12:30.706Z,74985.13
2018-04-14T21:15:00.468Z,75007.39
2018-04-14T21:17:29.927Z,75026.62
2018-04-14T21:19:59.383Z,75037.75
2018-04-14T21:22:29.297Z,75027.63
2018-04-14T21:24:58.817Z,75037.75
2018-04-14T21:27:28.320Z,75032.69
2018-04-14T21:29:58.301Z,75026.62
2018-04-14T21:32:27.766Z,75039.77
2018-04-14T21:34:57.279Z,75054.95
2018-04-14T21:37:27.256Z,75053.94
2018-04-14T21:39:56.687Z,75089.37
2018-04-14T21:42:26.155Z,75081.27
2018-04-14T21:44:55.933Z,75105.56
2018-04-14T21:47:25.531Z,75133.89
2018-04-14T21:49:55.067Z,75135.92
2018-04-14T21:52:24.814Z,75160.21
2018-04-14T21:54:54.213Z,75151.10
2018-04-14T21:57:24.003Z,75127.83
2018-04-14T21:59:53.878Z,75118.72
2018-04-14T22:02:23.481Z,75116.69
2018-04-14T22:04:53.321Z,75124.78
2018-04-14T22:07:23.302Z,75157.17
2018-04-14T22:09:52.937Z,75138.95
2018-04-14T22:12:22.391Z,75167.30
2018-04-14T22:14:52.317Z,75150.09
2018-04-14T22:17:21.738Z,75147.05
2018-04-14T22:19:51.254Z,75145.03
2018-04-14T22:22:21.179Z,75139.97
2018-04-14T22:24:50.674Z,75131.88
2018-04-14T22:27:20.114Z,75118.72
2018-04-14T22:29:50.022Z,75122.77
2018-04-14T22:32:19.499Z,75085.31
2018-04-14T22:34:48.932Z,75111.63
2018-04-14T22:37:18.798Z,75131.88
2018-04-14T22:39:48.414Z,75128.84
2018-04-14T22:42:18.198Z,75133.89
2018-04-14T22:44:47.926Z,75129.84
2018-04-14T22:47:17.442Z,75146.05
2018-04-14T22:49:47.058Z,75233.08
2018-04-14T22:52:17.079Z,75284.70
2018-04-14T22:54:46.563Z,75315.06
2018-04-14T22:57:16.011Z,75327.21
2018-04-14T22:59:45.984Z,75332.27
2018-04-14T23:02:15.449Z,75297.86
2018-04-14T23:04:44.918Z,75300.89
2018-04-14T23:07:14.722Z,75268.50
2018-04-14T23:09:44.267Z,75170.33
2018-04-14T23:12:13.983Z,75148.06
2018-04-14T23:14:44.067Z,75143.00
2018-04-14T23:17:13.543Z,75179.44
2018-04-14T23:19:43.186Z,75167.30
2018-04-14T23:22:15.871Z,75129.84
2018-04-14T23:24:45.318Z,75133.89
2018-04-14T23:27:14.829Z,75152.11
2018-04-14T23:29:45.443Z,75159.20
2018-04-14T23:32:15.864Z,75175.39
2018-04-14T23:34:45.887Z,75217.91
2018-04-14T23:37:16.489Z,75226.00
2018-04-14T23:39:46.084Z,75203.73
2018-04-14T23:42:15.506Z,75196.65
2018-04-14T23:44:45.556Z,75187.54
2018-04-14T23:47:15.158Z,75246.23
2018-04-14T23:49:44.683Z,75300.89
2018-04-14T23:52:14.637Z,75317.09
2018-04-14T23:54:44.279Z,75300.89
2018-04-14T23:57:13.906Z,75268.50
2018-04-14T23:59:43.767Z,75294.82
